sensor_id;sensor_type;location;lat;lon;timestamp;pressure;altitude;pressure_sealevel;temperature;humidity
78383;BME280;67668;52.294;4.692;2024-01-30T00:02:25;102613.00;;;8.44;88.60
78383;BME280;67668;52.294;4.692;2024-01-30T00:04:50;102604.22;;;8.44;88.61
78383;BME280;67668;52.294;4.692;2024-01-30T00:07:16;102606.00;;;8.43;88.29
78383;BME280;67668;52.294;4.692;2024-01-30T00:09:41;102611.28;;;8.43;88.53
78383;BME280;67668;52.294;4.692;2024-01-30T00:12:07;102607.97;;;8.40;88.61
78383;BME280;67668;52.294;4.692;2024-01-30T00:14:32;102614.16;;;8.39;89.34
78383;BME280;67668;52.294;4.692;2024-01-30T00:16:57;102608.88;;;8.39;88.58
78383;BME280;67668;52.294;4.692;2024-01-30T00:19:30;102604.56;;;8.38;88.70
78383;BME280;67668;52.294;4.692;2024-01-30T00:21:55;102608.13;;;8.37;88.96
78383;BME280;67668;52.294;4.692;2024-01-30T00:24:20;102616.16;;;8.35;89.32
78383;BME280;67668;52.294;4.692;2024-01-30T00:26:46;102623.09;;;8.36;89.53
78383;BME280;67668;52.294;4.692;2024-01-30T00:29:11;102625.75;;;8.36;89.25
78383;BME280;67668;52.294;4.692;2024-01-30T00:31:37;102616.03;;;8.37;89.53
78383;BME280;67668;52.294;4.692;2024-01-30T00:34:02;102603.03;;;8.34;89.88
78383;BME280;67668;52.294;4.692;2024-01-30T00:36:27;102599.53;;;8.33;89.76
78383;BME280;67668;52.294;4.692;2024-01-30T00:38:55;102597.00;;;8.32;89.91
78383;BME280;67668;52.294;4.692;2024-01-30T00:41:20;102590.00;;;8.30;90.26
78383;BME280;67668;52.294;4.692;2024-01-30T00:43:45;102599.63;;;8.32;90.26
78383;BME280;67668;52.294;4.692;2024-01-30T00:46:11;102599.69;;;8.30;90.01
78383;BME280;67668;52.294;4.692;2024-01-30T00:48:36;102592.66;;;8.30;90.10
78383;BME280;67668;52.294;4.692;2024-01-30T00:51:01;102599.69;;;8.30;89.78
78383;BME280;67668;52.294;4.692;2024-01-30T00:53:28;102604.97;;;8.30;89.65
78383;BME280;67668;52.294;4.692;2024-01-30T00:55:53;102604.97;;;8.30;90.16
78383;BME280;67668;52.294;4.692;2024-01-30T00:58:18;102604.91;;;8.32;90.30
78383;BME280;67668;52.294;4.692;2024-01-30T01:00:44;102604.91;;;8.32;89.91
78383;BME280;67668;52.294;4.692;2024-01-30T01:03:09;102594.44;;;8.30;89.80
78383;BME280;67668;52.294;4.692;2024-01-30T01:05:35;102600.63;;;8.29;89.84
78383;BME280;67668;52.294;4.692;2024-01-30T01:08:00;102608.47;;;8.30;90.37
78383;BME280;67668;52.294;4.692;2024-01-30T01:10:26;102610.25;;;8.30;89.88
78383;BME280;67668;52.294;4.692;2024-01-30T01:12:52;102612.81;;;8.32;89.93
78383;BME280;67668;52.294;4.692;2024-01-30T01:15:17;102601.31;;;8.32;89.39
78383;BME280;67668;52.294;4.692;2024-01-30T01:17:43;102604.81;;;8.33;89.67
78383;BME280;67668;52.294;4.692;2024-01-30T01:20:08;102594.25;;;8.33;89.95
78383;BME280;67668;52.294;4.692;2024-01-30T01:22:34;102588.97;;;8.33;89.79
78383;BME280;67668;52.294;4.692;2024-01-30T01:25:00;102590.88;;;8.31;89.84
78383;BME280;67668;52.294;4.692;2024-01-30T01:27:25;102590.88;;;8.31;90.59
78383;BME280;67668;52.294;4.692;2024-01-30T01:29:51;102586.34;;;8.33;90.35
78383;BME280;67668;52.294;4.692;2024-01-30T01:32:17;102585.59;;;8.31;90.95
78383;BME280;67668;52.294;4.692;2024-01-30T01:34:42;102588.22;;;8.31;90.21
78383;BME280;67668;52.294;4.692;2024-01-30T01:37:07;102578.59;;;8.30;91.02
78383;BME280;67668;52.294;4.692;2024-01-30T01:39:33;102574.19;;;8.30;90.80
78383;BME280;67668;52.294;4.692;2024-01-30T01:41:58;102577.75;;;8.29;90.20
78383;BME280;67668;52.294;4.692;2024-01-30T01:44:23;102567.19;;;8.29;90.56
78383;BME280;67668;52.294;4.692;2024-01-30T01:46:49;102561.06;;;8.29;90.42
78383;BME280;67668;52.294;4.692;2024-01-30T01:49:14;102560.28;;;8.27;90.11
78383;BME280;67668;52.294;4.692;2024-01-30T01:51:41;102551.59;;;8.25;91.11
78383;BME280;67668;52.294;4.692;2024-01-30T01:54:07;102562.16;;;8.25;91.10
78383;BME280;67668;52.294;4.692;2024-01-30T01:56:34;102555.94;;;8.26;90.84
78383;BME280;67668;52.294;4.692;2024-01-30T01:59:03;102549.78;;;8.25;90.89
78383;BME280;67668;52.294;4.692;2024-01-30T02:01:31;102567.34;;;8.26;91.17
78383;BME280;67668;52.294;4.692;2024-01-30T02:03:58;102573.47;;;8.27;90.88
78383;BME280;67668;52.294;4.692;2024-01-30T02:06:23;102568.16;;;8.28;90.73
78383;BME280;67668;52.294;4.692;2024-01-30T02:08:49;102561.91;;;8.29;91.09
78383;BME280;67668;52.294;4.692;2024-01-30T02:11:14;102569.75;;;8.31;90.31
78383;BME280;67668;52.294;4.692;2024-01-30T02:13:41;102556.56;;;8.31;90.59
78383;BME280;67668;52.294;4.692;2024-01-30T02:16:07;102553.94;;;8.31;90.65
78383;BME280;67668;52.294;4.692;2024-01-30T02:18:32;102567.97;;;8.32;91.20
78383;BME280;67668;52.294;4.692;2024-01-30T02:20:58;102570.50;;;8.33;91.34
78383;BME280;67668;52.294;4.692;2024-01-30T02:23:26;102576.66;;;8.34;90.80
78383;BME280;67668;52.294;4.692;2024-01-30T02:25:52;102572.41;;;8.31;90.77
78383;BME280;67668;52.294;4.692;2024-01-30T02:28:18;102565.41;;;8.30;91.48
78383;BME280;67668;52.294;4.692;2024-01-30T02:30:43;102556.63;;;8.29;91.19
78383;BME280;67668;52.294;4.692;2024-01-30T02:33:09;102562.78;;;8.30;91.32
78383;BME280;67668;52.294;4.692;2024-01-30T02:35:34;102550.50;;;8.29;91.33
78383;BME280;67668;52.294;4.692;2024-01-30T02:38:00;102562.78;;;8.30;91.33
78383;BME280;67668;52.294;4.692;2024-01-30T02:40:25;102561.06;;;8.29;91.12
78383;BME280;67668;52.294;4.692;2024-01-30T02:42:51;102558.34;;;8.30;90.72
78383;BME280;67668;52.294;4.692;2024-01-30T02:45:16;102547.81;;;8.30;90.78
78383;BME280;67668;52.294;4.692;2024-01-30T02:47:41;102553.06;;;8.30;90.93
78383;BME280;67668;52.294;4.692;2024-01-30T02:50:06;102539.97;;;8.29;91.17
78383;BME280;67668;52.294;4.692;2024-01-30T02:52:32;102538.19;;;8.29;90.60
78383;BME280;67668;52.294;4.692;2024-01-30T02:54:58;102540.03;;;8.27;90.68
78383;BME280;67668;52.294;4.692;2024-01-30T02:57:23;102534.69;;;8.29;90.43
78383;BME280;67668;52.294;4.692;2024-01-30T02:59:48;102531.25;;;8.27;91.08
78383;BME280;67668;52.294;4.692;2024-01-30T03:02:13;102533.91;;;8.27;91.14
78383;BME280;67668;52.294;4.692;2024-01-30T03:04:41;102521.63;;;8.26;90.37
78383;BME280;67668;52.294;4.692;2024-01-30T03:07:06;102526.91;;;8.26;90.53
78383;BME280;67668;52.294;4.692;2024-01-30T03:09:32;102517.31;;;8.25;91.07
78383;BME280;67668;52.294;4.692;2024-01-30T03:11:57;102520.88;;;8.24;90.98
78383;BME280;67668;52.294;4.692;2024-01-30T03:14:22;102510.34;;;8.24;91.16
78383;BME280;67668;52.294;4.692;2024-01-30T03:16:47;102511.25;;;8.23;90.49
78383;BME280;67668;52.294;4.692;2024-01-30T03:19:13;102510.34;;;8.24;91.20
78383;BME280;67668;52.294;4.692;2024-01-30T03:21:38;102505.06;;;8.24;90.91
78383;BME280;67668;52.294;4.692;2024-01-30T03:24:04;102509.41;;;8.25;91.40
78383;BME280;67668;52.294;4.692;2024-01-30T03:26:29;102518.31;;;8.22;90.96
78383;BME280;67668;52.294;4.692;2024-01-30T03:28:54;102512.13;;;8.23;90.95
78383;BME280;67668;52.294;4.692;2024-01-30T03:31:19;102509.47;;;8.23;91.33
78383;BME280;67668;52.294;4.692;2024-01-30T03:33:45;102514.69;;;8.25;90.79
78383;BME280;67668;52.294;4.692;2024-01-30T03:36:10;102519.00;;;8.26;91.17
78383;BME280;67668;52.294;4.692;2024-01-30T03:38:35;102519.84;;;8.26;90.72
78383;BME280;67668;52.294;4.692;2024-01-30T03:41:01;102517.22;;;8.26;91.44
78383;BME280;67668;52.294;4.692;2024-01-30T03:43:26;102515.44;;;8.27;91.44
78383;BME280;67668;52.294;4.692;2024-01-30T03:45:51;102507.59;;;8.25;91.43
78383;BME280;67668;52.294;4.692;2024-01-30T03:48:17;102504.03;;;8.26;91.18
78383;BME280;67668;52.294;4.692;2024-01-30T03:50:42;102504.88;;;8.27;91.68
78383;BME280;67668;52.294;4.692;2024-01-30T03:53:08;102500.47;;;8.27;91.48
78383;BME280;67668;52.294;4.692;2024-01-30T03:55:33;102498.75;;;8.26;91.51
78383;BME280;67668;52.294;4.692;2024-01-30T03:57:58;102506.63;;;8.28;91.15
78383;BME280;67668;52.294;4.692;2024-01-30T04:00:24;102495.19;;;8.27;91.82
78383;BME280;67668;52.294;4.692;2024-01-30T04:02:49;102495.13;;;8.29;91.65
78383;BME280;67668;52.294;4.692;2024-01-30T04:05:16;102498.72;;;8.28;91.54
78383;BME280;67668;52.294;4.692;2024-01-30T04:07:41;102492.47;;;8.29;91.60
78383;BME280;67668;52.294;4.692;2024-01-30T04:10:07;102499.47;;;8.30;91.15
78383;BME280;67668;52.294;4.692;2024-01-30T04:12:32;102499.56;;;8.28;91.58
78383;BME280;67668;52.294;4.692;2024-01-30T04:14:57;102504.88;;;8.27;91.58
78383;BME280;67668;52.294;4.692;2024-01-30T04:17:23;102509.31;;;8.26;91.69
78383;BME280;67668;52.294;4.692;2024-01-30T04:19:48;102507.53;;;8.27;91.70
78383;BME280;67668;52.294;4.692;2024-01-30T04:22:13;102502.25;;;8.27;91.21
78383;BME280;67668;52.294;4.692;2024-01-30T04:24:38;102505.75;;;8.27;91.16
78383;BME280;67668;52.294;4.692;2024-01-30T04:27:04;102498.75;;;8.26;91.37
78383;BME280;67668;52.294;4.692;2024-01-30T04:29:29;102504.88;;;8.27;91.36
78383;BME280;67668;52.294;4.692;2024-01-30T04:31:55;102499.59;;;8.27;91.57
78383;BME280;67668;52.294;4.692;2024-01-30T04:34:20;102499.59;;;8.27;91.54
78383;BME280;67668;52.294;4.692;2024-01-30T04:36:45;102491.69;;;8.27;91.04
78383;BME280;67668;52.294;4.692;2024-01-30T04:39:11;102489.84;;;8.29;91.60
78383;BME280;67668;52.294;4.692;2024-01-30T04:41:37;102488.16;;;8.28;91.50
78383;BME280;67668;52.294;4.692;2024-01-30T04:44:03;102481.09;;;8.28;91.41
78383;BME280;67668;52.294;4.692;2024-01-30T04:46:28;102479.28;;;8.29;90.86
78383;BME280;67668;52.294;4.692;2024-01-30T04:48:53;102476.66;;;8.29;91.51
78383;BME280;67668;52.294;4.692;2024-01-30T04:51:19;102467.81;;;8.30;91.10
78383;BME280;67668;52.294;4.692;2024-01-30T04:53:44;102466.97;;;8.29;91.23
78383;BME280;67668;52.294;4.692;2024-01-30T04:56:09;102466.88;;;8.31;91.82
78383;BME280;67668;52.294;4.692;2024-01-30T04:58:35;102465.28;;;8.28;91.47
78383;BME280;67668;52.294;4.692;2024-01-30T05:01:00;102458.19;;;8.29;91.33
78383;BME280;67668;52.294;4.692;2024-01-30T05:03:26;102459.16;;;8.28;91.42
78383;BME280;67668;52.294;4.692;2024-01-30T05:05:51;102460.81;;;8.29;91.83
78383;BME280;67668;52.294;4.692;2024-01-30T05:08:16;102462.63;;;8.28;91.68
78383;BME280;67668;52.294;4.692;2024-01-30T05:10:41;102460.81;;;8.29;91.71
78383;BME280;67668;52.294;4.692;2024-01-30T05:13:07;102466.97;;;8.29;91.50
78383;BME280;67668;52.294;4.692;2024-01-30T05:15:32;102474.78;;;8.31;91.81
78383;BME280;67668;52.294;4.692;2024-01-30T05:17:57;102471.38;;;8.29;91.72
78383;BME280;67668;52.294;4.692;2024-01-30T05:20:22;102470.44;;;8.30;92.03
78383;BME280;67668;52.294;4.692;2024-01-30T05:22:48;102467.75;;;8.32;92.14
78383;BME280;67668;52.294;4.692;2024-01-30T05:25:13;102475.66;;;8.32;91.54
78383;BME280;67668;52.294;4.692;2024-01-30T05:27:38;102479.03;;;8.34;91.51
78383;BME280;67668;52.294;4.692;2024-01-30T05:30:06;102473.00;;;8.32;91.87
78383;BME280;67668;52.294;4.692;2024-01-30T05:32:32;102478.19;;;8.33;91.70
78383;BME280;67668;52.294;4.692;2024-01-30T05:34:57;102465.84;;;8.34;91.71
78383;BME280;67668;52.294;4.692;2024-01-30T05:37:22;102470.19;;;8.35;92.19
78383;BME280;67668;52.294;4.692;2024-01-30T05:39:48;102467.47;;;8.36;91.45
78383;BME280;67668;52.294;4.692;2024-01-30T05:42:13;102466.59;;;8.36;91.91
78383;BME280;67668;52.294;4.692;2024-01-30T05:44:40;102470.94;;;8.37;91.64
78383;BME280;67668;52.294;4.692;2024-01-30T05:47:05;102475.31;;;8.38;91.95
78383;BME280;67668;52.294;4.692;2024-01-30T05:49:30;102476.97;;;8.39;92.20
78383;BME280;67668;52.294;4.692;2024-01-30T05:51:55;102473.41;;;8.40;92.13
78383;BME280;67668;52.294;4.692;2024-01-30T05:54:21;102469.00;;;8.40;92.39
78383;BME280;67668;52.294;4.692;2024-01-30T05:56:46;102464.63;;;8.39;91.76
78383;BME280;67668;52.294;4.692;2024-01-30T05:59:11;102466.34;;;8.40;92.20
78383;BME280;67668;52.294;4.692;2024-01-30T06:01:37;102455.81;;;8.40;92.00
78383;BME280;67668;52.294;4.692;2024-01-30T06:04:02;102461.00;;;8.42;92.33
78383;BME280;67668;52.294;4.692;2024-01-30T06:06:27;102465.41;;;8.41;92.41
78383;BME280;67668;52.294;4.692;2024-01-30T06:08:53;102470.69;;;8.41;92.49
78383;BME280;67668;52.294;4.692;2024-01-30T06:11:20;102467.09;;;8.42;92.07
78383;BME280;67668;52.294;4.692;2024-01-30T06:13:45;102482.94;;;8.42;91.81
78383;BME280;67668;52.294;4.692;2024-01-30T06:16:12;102481.25;;;8.41;92.45
78383;BME280;67668;52.294;4.692;2024-01-30T06:18:37;102479.38;;;8.43;92.48
78383;BME280;67668;52.294;4.692;2024-01-30T06:21:04;102480.22;;;8.44;92.52
78383;BME280;67668;52.294;4.692;2024-01-30T06:23:29;102477.59;;;8.44;91.96
78383;BME280;67668;52.294;4.692;2024-01-30T06:25:55;102474.84;;;8.45;92.90
78383;BME280;67668;52.294;4.692;2024-01-30T06:28:20;102476.53;;;8.46;93.23
78383;BME280;67668;52.294;4.692;2024-01-30T06:30:45;102475.63;;;8.47;92.68
78383;BME280;67668;52.294;4.692;2024-01-30T06:33:12;102478.16;;;8.49;93.81
78383;BME280;67668;52.294;4.692;2024-01-30T06:35:38;102471.94;;;8.50;93.49
78383;BME280;67668;52.294;4.692;2024-01-30T06:38:05;102470.16;;;8.50;93.43
78383;BME280;67668;52.294;4.692;2024-01-30T06:40:30;102472.69;;;8.52;93.25
78383;BME280;67668;52.294;4.692;2024-01-30T06:42:56;102473.56;;;8.52;93.14
78383;BME280;67668;52.294;4.692;2024-01-30T06:45:21;102474.50;;;8.51;92.93
78383;BME280;67668;52.294;4.692;2024-01-30T06:47:46;102470.91;;;8.52;93.43
78383;BME280;67668;52.294;4.692;2024-01-30T06:50:11;102473.47;;;8.54;93.26
78383;BME280;67668;52.294;4.692;2024-01-30T06:52:37;102475.25;;;8.53;93.14
78383;BME280;67668;52.294;4.692;2024-01-30T06:55:02;102472.63;;;8.53;92.76
78383;BME280;67668;52.294;4.692;2024-01-30T06:57:28;102477.91;;;8.53;92.57
78383;BME280;67668;52.294;4.692;2024-01-30T06:59:54;102476.19;;;8.52;92.03
78383;BME280;67668;52.294;4.692;2024-01-30T07:05:43;102490.25;;;8.53;91.38
78383;BME280;67668;52.294;4.692;2024-01-30T07:08:28;102492.88;;;8.53;92.23
78383;BME280;67668;52.294;4.692;2024-01-30T07:11:21;102488.47;;;8.53;91.71
78383;BME280;67668;52.294;4.692;2024-01-30T07:13:52;102491.84;;;8.55;91.80
78383;BME280;67668;52.294;4.692;2024-01-30T07:16:17;102490.91;;;8.56;92.40
78383;BME280;67668;52.294;4.692;2024-01-30T07:18:43;102497.91;;;8.57;92.12
78383;BME280;67668;52.294;4.692;2024-01-30T07:21:08;102504.03;;;8.58;92.14
78383;BME280;67668;52.294;4.692;2024-01-30T07:23:34;102504.03;;;8.58;91.84
78383;BME280;67668;52.294;4.692;2024-01-30T07:26:01;102504.88;;;8.58;91.79
78383;BME280;67668;52.294;4.692;2024-01-30T07:28:26;102510.16;;;8.58;91.80
78383;BME280;67668;52.294;4.692;2024-01-30T07:30:51;102510.00;;;8.61;92.10
78383;BME280;67668;52.294;4.692;2024-01-30T07:33:17;102519.69;;;8.61;91.54
78383;BME280;67668;52.294;4.692;2024-01-30T07:35:42;102516.94;;;8.62;91.40
78383;BME280;67668;52.294;4.692;2024-01-30T07:38:07;102510.75;;;8.63;91.59
78383;BME280;67668;52.294;4.692;2024-01-30T07:40:33;102517.81;;;8.63;91.24
78383;BME280;67668;52.294;4.692;2024-01-30T07:42:58;102523.00;;;8.64;91.20
78383;BME280;67668;52.294;4.692;2024-01-30T07:45:23;102524.69;;;8.65;91.16
78383;BME280;67668;52.294;4.692;2024-01-30T07:47:51;102521.13;;;8.66;91.60
78383;BME280;67668;52.294;4.692;2024-01-30T07:50:16;102522.81;;;8.67;91.72
78383;BME280;67668;52.294;4.692;2024-01-30T07:52:42;102524.44;;;8.70;91.86
78383;BME280;67668;52.294;4.692;2024-01-30T07:55:07;102524.44;;;8.70;91.16
78383;BME280;67668;52.294;4.692;2024-01-30T07:57:33;102528.78;;;8.71;91.26
78383;BME280;67668;52.294;4.692;2024-01-30T07:59:59;102525.19;;;8.72;91.55
78383;BME280;67668;52.294;4.692;2024-01-30T08:02:24;102526.81;;;8.74;92.44
78383;BME280;67668;52.294;4.692;2024-01-30T08:04:50;102530.13;;;8.78;93.38
78383;BME280;67668;52.294;4.692;2024-01-30T08:07:15;102535.31;;;8.79;94.01
78383;BME280;67668;52.294;4.692;2024-01-30T08:09:40;102536.84;;;8.83;94.62
78383;BME280;67668;52.294;4.692;2024-01-30T08:12:06;102535.81;;;8.86;94.39
78383;BME280;67668;52.294;4.692;2024-01-30T08:14:31;102536.66;;;8.87;94.59
78383;BME280;67668;52.294;4.692;2024-01-30T08:16:56;102549.69;;;8.90;94.57
78383;BME280;67668;52.294;4.692;2024-01-30T08:19:21;102540.81;;;8.91;94.81
78383;BME280;67668;52.294;4.692;2024-01-30T08:21:47;102553.84;;;8.94;94.94
78383;BME280;67668;52.294;4.692;2024-01-30T08:24:12;102548.56;;;8.94;95.07
78383;BME280;67668;52.294;4.692;2024-01-30T08:26:37;102547.34;;;8.99;95.27
78383;BME280;67668;52.294;4.692;2024-01-30T08:29:04;102542.91;;;9.00;95.61
78383;BME280;67668;52.294;4.692;2024-01-30T08:31:29;102549.72;;;9.04;95.76
78383;BME280;67668;52.294;4.692;2024-01-30T08:33:54;102544.34;;;9.05;95.85
78383;BME280;67668;52.294;4.692;2024-01-30T08:36:19;102548.63;;;9.08;96.10
78383;BME280;67668;52.294;4.692;2024-01-30T08:38:45;102546.72;;;9.10;95.73
78383;BME280;67668;52.294;4.692;2024-01-30T08:41:10;102547.47;;;9.12;95.97
78383;BME280;67668;52.294;4.692;2024-01-30T08:43:35;102559.56;;;9.16;95.98
78383;BME280;67668;52.294;4.692;2024-01-30T08:46:01;102558.63;;;9.17;96.34
78383;BME280;67668;52.294;4.692;2024-01-30T08:48:27;102567.31;;;9.19;96.27
78383;BME280;67668;52.294;4.692;2024-01-30T08:50:52;102561.84;;;9.22;96.21
78383;BME280;67668;52.294;4.692;2024-01-30T08:53:18;102568.75;;;9.24;96.52
78383;BME280;67668;52.294;4.692;2024-01-30T08:55:43;102557.16;;;9.27;96.52
78383;BME280;67668;52.294;4.692;2024-01-30T08:58:09;102557.91;;;9.29;96.27
78383;BME280;67668;52.294;4.692;2024-01-30T09:00:34;102559.50;;;9.31;96.38
78383;BME280;67668;52.294;4.692;2024-01-30T09:02:59;102568.19;;;9.33;96.50
78383;BME280;67668;52.294;4.692;2024-01-30T09:05:25;102559.22;;;9.36;96.33
78383;BME280;67668;52.294;4.692;2024-01-30T09:07:50;102566.03;;;9.40;96.08
78383;BME280;67668;52.294;4.692;2024-01-30T09:10:15;102573.13;;;9.40;95.94
78383;BME280;67668;52.294;4.692;2024-01-30T09:12:41;102567.75;;;9.41;95.69
78383;BME280;67668;52.294;4.692;2024-01-30T09:15:07;102579.06;;;9.43;95.59
78383;BME280;67668;52.294;4.692;2024-01-30T09:17:32;102586.06;;;9.44;95.55
78383;BME280;67668;52.294;4.692;2024-01-30T09:19:58;102577.28;;;9.44;96.08
78383;BME280;67668;52.294;4.692;2024-01-30T09:22:23;102585.88;;;9.47;96.04
78383;BME280;67668;52.294;4.692;2024-01-30T09:24:49;102589.38;;;9.48;95.94
78383;BME280;67668;52.294;4.692;2024-01-30T09:27:14;102599.84;;;9.49;96.07
78383;BME280;67668;52.294;4.692;2024-01-30T09:29:39;102594.47;;;9.51;95.99
78383;BME280;67668;52.294;4.692;2024-01-30T09:32:05;102591.84;;;9.51;95.79
78383;BME280;67668;52.294;4.692;2024-01-30T09:34:31;102589.09;;;9.52;95.73
78383;BME280;67668;52.294;4.692;2024-01-30T09:36:56;102591.72;;;9.52;95.75
78383;BME280;67668;52.294;4.692;2024-01-30T09:39:22;102603.16;;;9.53;95.38
78383;BME280;67668;52.294;4.692;2024-01-30T09:44:19;102608.50;;;9.51;94.43
78383;BME280;67668;52.294;4.692;2024-01-30T09:46:47;102614.66;;;9.52;94.08
78383;BME280;67668;52.294;4.692;2024-01-30T09:49:13;102604.09;;;9.52;93.72
78383;BME280;67668;52.294;4.692;2024-01-30T09:51:39;102629.66;;;9.51;93.42
78383;BME280;67668;52.294;4.692;2024-01-30T09:54:05;102644.69;;;9.51;92.91
78383;BME280;67668;52.294;4.692;2024-01-30T09:56:32;102649.19;;;9.49;91.96
78383;BME280;67668;52.294;4.692;2024-01-30T09:58:57;102613.06;;;9.49;92.12
78383;BME280;67668;52.294;4.692;2024-01-30T10:01:23;102628.16;;;9.47;91.48
78383;BME280;67668;52.294;4.692;2024-01-30T10:03:50;102631.66;;;9.48;91.47
78383;BME280;67668;52.294;4.692;2024-01-30T10:06:18;102625.53;;;9.47;91.40
78383;BME280;67668;52.294;4.692;2024-01-30T10:08:43;102622.59;;;9.52;91.55
78383;BME280;67668;52.294;4.692;2024-01-30T10:11:09;102630.50;;;9.52;91.22
78383;BME280;67668;52.294;4.692;2024-01-30T10:13:34;102627.78;;;9.53;91.03
78383;BME280;67668;52.294;4.692;2024-01-30T10:16:00;102629.50;;;9.54;91.25
78383;BME280;67668;52.294;4.692;2024-01-30T10:18:28;102625.03;;;9.55;91.16
78383;BME280;67668;52.294;4.692;2024-01-30T10:20:53;102627.59;;;9.56;91.38
78383;BME280;67668;52.294;4.692;2024-01-30T10:23:19;102624.78;;;9.59;91.33
78383;BME280;67668;52.294;4.692;2024-01-30T10:25:45;102627.44;;;9.59;91.52
78383;BME280;67668;52.294;4.692;2024-01-30T10:28:11;102635.28;;;9.61;91.64
78383;BME280;67668;52.294;4.692;2024-01-30T10:30:36;102639.53;;;9.63;91.74
78383;BME280;67668;52.294;4.692;2024-01-30T10:33:01;102634.22;;;9.63;91.57
78383;BME280;67668;52.294;4.692;2024-01-30T10:35:27;102656.25;;;9.64;91.70
78383;BME280;67668;52.294;4.692;2024-01-30T10:37:52;102640.44;;;9.62;91.55
78383;BME280;67668;52.294;4.692;2024-01-30T10:40:21;102632.44;;;9.64;91.29
78383;BME280;67668;52.294;4.692;2024-01-30T10:42:51;102637.81;;;9.62;91.24
78383;BME280;67668;52.294;4.692;2024-01-30T10:45:18;102656.31;;;9.62;91.28
78383;BME280;67668;52.294;4.692;2024-01-30T10:47:48;102655.38;;;9.63;91.52
78383;BME280;67668;52.294;4.692;2024-01-30T10:50:14;102655.38;;;9.63;91.92
78383;BME280;67668;52.294;4.692;2024-01-30T10:52:39;102654.53;;;9.63;92.32
78383;BME280;67668;52.294;4.692;2024-01-30T10:55:07;102661.53;;;9.64;92.28
78383;BME280;67668;52.294;4.692;2024-01-30T10:57:34;102651.81;;;9.64;92.50
78383;BME280;67668;52.294;4.692;2024-01-30T11:00:03;102653.59;;;9.64;92.72
78383;BME280;67668;52.294;4.692;2024-01-30T11:02:31;102662.47;;;9.63;92.55
78383;BME280;67668;52.294;4.692;2024-01-30T11:04:58;102676.53;;;9.63;92.38
78383;BME280;67668;52.294;4.692;2024-01-30T11:07:26;102673.97;;;9.62;92.69
78383;BME280;67668;52.294;4.692;2024-01-30T11:12:27;102668.59;;;9.63;91.96
78383;BME280;67668;52.294;4.692;2024-01-30T11:15:07;102662.38;;;9.64;92.04
78383;BME280;67668;52.294;4.692;2024-01-30T11:20:30;102674.63;;;9.65;91.51
78383;BME280;67668;52.294;4.692;2024-01-30T11:22:57;102675.41;;;9.67;91.30
78383;BME280;67668;52.294;4.692;2024-01-30T11:25:23;102672.78;;;9.67;91.04
78383;BME280;67668;52.294;4.692;2024-01-30T11:27:53;102665.78;;;9.66;90.96
78383;BME280;67668;52.294;4.692;2024-01-30T11:30:30;102669.16;;;9.68;90.68
78383;BME280;67668;52.294;4.692;2024-01-30T11:33:10;102664.06;;;9.65;90.48
78383;BME280;67668;52.294;4.692;2024-01-30T11:38:07;102653.22;;;9.70;90.79
78383;BME280;67668;52.294;4.692;2024-01-30T11:40:33;102659.38;;;9.70;90.55
78383;BME280;67668;52.294;4.692;2024-01-30T11:43:00;102654.81;;;9.72;90.21
78383;BME280;67668;52.294;4.692;2024-01-30T11:45:28;102667.13;;;9.73;90.13
78383;BME280;67668;52.294;4.692;2024-01-30T11:47:54;102659.06;;;9.75;90.31
78383;BME280;67668;52.294;4.692;2024-01-30T11:50:20;102661.63;;;9.76;89.88
78383;BME280;67668;52.294;4.692;2024-01-30T11:52:46;102666.81;;;9.78;89.96
78383;BME280;67668;52.294;4.692;2024-01-30T11:55:12;102663.34;;;9.77;89.80
78383;BME280;67668;52.294;4.692;2024-01-30T11:57:38;102667.69;;;9.78;89.83
78383;BME280;67668;52.294;4.692;2024-01-30T12:00:04;102681.84;;;9.77;89.72
78383;BME280;67668;52.294;4.692;2024-01-30T12:02:35;102676.56;;;9.77;89.80
78383;BME280;67668;52.294;4.692;2024-01-30T12:05:03;102678.25;;;9.78;89.93
78383;BME280;67668;52.294;4.692;2024-01-30T12:07:29;102679.09;;;9.79;90.12
78383;BME280;67668;52.294;4.692;2024-01-30T12:09:54;102676.56;;;9.77;90.17
78383;BME280;67668;52.294;4.692;2024-01-30T12:12:22;102684.50;;;9.77;90.57
78383;BME280;67668;52.294;4.692;2024-01-30T12:14:49;102688.94;;;9.77;90.28
78383;BME280;67668;52.294;4.692;2024-01-30T12:17:23;102684.50;;;9.77;90.43
78383;BME280;67668;52.294;4.692;2024-01-30T12:19:48;102680.91;;;9.78;90.46
78383;BME280;67668;52.294;4.692;2024-01-30T12:22:13;102681.75;;;9.79;90.33
78383;BME280;67668;52.294;4.692;2024-01-30T12:24:39;102668.72;;;9.76;90.41
78383;BME280;67668;52.294;4.692;2024-01-30T12:27:04;102672.22;;;9.76;90.26
78383;BME280;67668;52.294;4.692;2024-01-30T12:29:32;102689.00;;;9.75;90.48
78383;BME280;67668;52.294;4.692;2024-01-30T12:31:58;102686.38;;;9.75;90.16
78383;BME280;67668;52.294;4.692;2024-01-30T12:34:24;102692.50;;;9.76;90.31
78383;BME280;67668;52.294;4.692;2024-01-30T12:36:50;102695.09;;;9.77;90.28
78383;BME280;67668;52.294;4.692;2024-01-30T12:39:15;102696.75;;;9.78;90.08
78383;BME280;67668;52.294;4.692;2024-01-30T12:41:40;102690.63;;;9.78;90.23
78383;BME280;67668;52.294;4.692;2024-01-30T12:44:06;102696.75;;;9.78;90.36
78383;BME280;67668;52.294;4.692;2024-01-30T12:46:34;102696.75;;;9.78;89.89
78383;BME280;67668;52.294;4.692;2024-01-30T12:48:59;102702.06;;;9.78;90.18
78383;BME280;67668;52.294;4.692;2024-01-30T12:51:24;102686.19;;;9.78;90.11
78383;BME280;67668;52.294;4.692;2024-01-30T12:53:50;102695.81;;;9.79;90.01
78383;BME280;67668;52.294;4.692;2024-01-30T12:56:15;102699.22;;;9.81;90.14
78383;BME280;67668;52.294;4.692;2024-01-30T12:58:41;102701.88;;;9.81;90.18
78383;BME280;67668;52.294;4.692;2024-01-30T13:01:08;102699.22;;;9.81;90.20
78383;BME280;67668;52.294;4.692;2024-01-30T13:03:33;102704.50;;;9.81;90.26
78383;BME280;67668;52.294;4.692;2024-01-30T13:05:58;102696.50;;;9.83;90.26
78383;BME280;67668;52.294;4.692;2024-01-30T13:08:23;102705.28;;;9.83;90.28